createdAt,value
2023-05-06T00:04:17.523Z,9.35
2023-05-06T00:09:21.509Z,9.07
2023-05-06T00:14:24.952Z,8.52
2023-05-06T00:19:29.996Z,9.23
2023-05-06T00:24:33.701Z,9.65
2023-05-06T00:29:37.378Z,9.77
2023-05-06T00:34:42.611Z,9.02
2023-05-06T00:39:46.260Z,10.10
2023-05-06T00:44:49.538Z,8.95
2023-05-06T00:49:54.330Z,9.82
2023-05-06T00:54:58.308Z,9.47
2023-05-06T01:00:01.824Z,10.13
2023-05-06T01:05:07.995Z,10.05
2023-05-06T01:10:20.495Z,9.75
2023-05-06T01:15:32.188Z,9.35
2023-05-06T01:20:38.283Z,10.38
2023-05-06T01:25:43.517Z,9.35
2023-05-06T01:30:54.756Z,8.88
2023-05-06T01:36:06.490Z,9.45
2023-05-06T01:41:16.980Z,9.98
2023-05-06T01:46:21.664Z,9.75
2023-05-06T01:51:25.850Z,10.83
2023-05-06T01:56:31.590Z,10.95
2023-05-06T02:01:35.631Z,11.90
2023-05-06T02:06:39.796Z,10.57
2023-05-06T02:11:44.904Z,11.27
2023-05-06T02:16:48.579Z,10.35
2023-05-06T02:21:52.470Z,9.82
2023-05-06T02:26:57.484Z,10.60
2023-05-06T02:32:01.036Z,11.07
2023-05-06T02:37:05.055Z,10.43
2023-05-06T02:42:09.727Z,11.20
2023-05-06T02:47:12.984Z,10.73
2023-05-06T02:52:16.205Z,11.00
2023-05-06T02:57:20.828Z,10.50
2023-05-06T03:02:24.296Z,10.93
2023-05-06T03:07:27.605Z,11.85
2023-05-06T03:12:32.544Z,11.32
2023-05-06T03:17:36.266Z,11.23
2023-05-06T03:27:47.839Z,11.57
2023-05-06T03:32:57.181Z,12.70
2023-05-06T03:38:06.368Z,13.13
2023-05-06T03:43:21.462Z,13.25
2023-05-06T03:48:28.897Z,13.38
2023-05-06T03:53:32.983Z,13.05
2023-05-06T03:58:38.894Z,13.57
2023-05-06T04:03:45.948Z,13.40
2023-05-06T04:08:49.901Z,14.37
2023-05-06T04:13:56.133Z,13.47
2023-05-06T04:19:00.097Z,13.38
2023-05-06T04:24:03.883Z,12.95
2023-05-06T04:29:13.884Z,14.48
2023-05-06T04:34:27.776Z,13.15
2023-05-06T04:39:32.991Z,14.13
2023-05-06T04:44:38.169Z,14.88
2023-05-06T04:49:44.882Z,14.13
2023-05-06T04:54:49.033Z,13.77
2023-05-06T04:59:54.213Z,14.55
2023-05-06T05:04:58.457Z,15.55
2023-05-06T05:10:02.528Z,15.73
2023-05-06T05:15:10.565Z,15.75
2023-05-06T05:20:14.829Z,16.05
2023-05-06T05:25:18.318Z,15.80
2023-05-06T05:30:24.955Z,15.02
2023-05-06T05:35:30.088Z,14.77
2023-05-06T05:40:33.360Z,14.40
2023-05-06T05:45:38.398Z,14.80
2023-05-06T05:55:46.234Z,14.15
2023-05-06T06:00:51.148Z,13.57
2023-05-06T06:05:55.599Z,14.05
2023-05-06T06:16:12.837Z,14.63
2023-05-06T06:21:16.134Z,13.83
2023-05-06T06:26:20.342Z,12.60
2023-05-06T06:31:25.977Z,14.10
2023-05-06T06:36:30.384Z,13.02
2023-05-06T06:41:33.772Z,14.25
2023-05-06T06:46:38.882Z,12.80
2023-05-06T06:51:42.113Z,13.68
2023-05-06T06:56:45.390Z,15.63
2023-05-06T07:01:49.995Z,13.20
2023-05-06T07:06:53.487Z,14.80
2023-05-06T07:11:56.994Z,12.60
2023-05-06T07:17:02.454Z,14.65
2023-05-06T07:27:09.809Z,13.85
2023-05-06T07:32:14.917Z,13.52
2023-05-06T07:37:18.609Z,14.00
2023-05-06T07:42:21.877Z,13.32
2023-05-06T07:47:31.435Z,14.20
2023-05-06T07:52:35.334Z,14.60
2023-05-06T07:57:39.176Z,16.17
2023-05-06T08:02:45.327Z,14.52
2023-05-06T08:07:50.512Z,14.32
2023-05-06T08:12:53.872Z,12.80
2023-05-06T08:18:07.073Z,12.93
2023-05-06T08:23:18.288Z,14.25
2023-05-06T08:28:23.570Z,13.38
2023-05-06T08:33:31.836Z,12.80
2023-05-06T08:38:35.048Z,12.85
2023-05-06T08:43:42.651Z,12.38
2023-05-06T08:48:47.414Z,12.07
2023-05-06T08:53:52.006Z,11.10
2023-05-06T08:58:56.217Z,11.90
2023-05-06T09:04:01.113Z,11.32
2023-05-06T09:09:05.711Z,10.60
2023-05-06T09:14:12.045Z,11.60
2023-05-06T09:19:18.005Z,10.80
2023-05-06T09:24:22.693Z,10.70
2023-05-06T09:29:26.439Z,11.57
2023-05-06T09:34:31.305Z,12.00
2023-05-06T09:39:34.856Z,10.70
2023-05-06T09:44:39.143Z,10.95
2023-05-06T09:49:44.239Z,10.00
2023-05-06T09:54:48.533Z,11.38
2023-05-06T09:59:53.674Z,9.55
2023-05-06T10:05:00.098Z,9.18
2023-05-06T10:10:04.930Z,8.90
2023-05-06T10:15:10.252Z,10.23
2023-05-06T10:20:16.353Z,9.80
2023-05-06T10:25:30.325Z,9.38
2023-05-06T10:30:35.958Z,9.57
2023-05-06T10:35:49.503Z,9.75
2023-05-06T10:40:53.886Z,7.97
2023-05-06T10:46:02.173Z,6.63
2023-05-06T10:51:25.032Z,8.60
2023-05-06T10:56:28.290Z,8.05
2023-05-06T11:01:32.188Z,7.25
2023-05-06T11:06:39.903Z,7.07
2023-05-06T11:11:58.848Z,7.60
2023-05-06T11:17:02.584Z,7.47
2023-05-06T11:22:08.690Z,6.88
2023-05-06T11:27:13.058Z,7.55
2023-05-06T11:32:24.746Z,5.80
2023-05-06T11:37:30.845Z,5.63
2023-05-06T11:42:34.573Z,7.78
2023-05-06T11:47:44.595Z,7.57
2023-05-06T11:52:49.690Z,9.15
2023-05-06T11:57:55.429Z,8.50
2023-05-06T12:02:59.290Z,8.27
2023-05-06T12:08:08.386Z,8.85
2023-05-06T12:13:17.079Z,8.63
2023-05-06T12:18:20.720Z,8.90
2023-05-06T12:23:25.679Z,8.95
2023-05-06T12:28:30.011Z,8.43
2023-05-06T12:33:46.718Z,8.70
2023-05-06T12:38:56.044Z,8.88
2023-05-06T12:43:59.494Z,8.05
2023-05-06T12:49:04.072Z,7.80
2023-05-06T12:54:30.484Z,7.73
2023-05-06T12:59:34.488Z,8.85
2023-05-06T13:04:37.889Z,8.25
2023-05-06T13:09:43.032Z,8.55
2023-05-06T13:14:46.614Z,9.40
2023-05-06T13:19:50.390Z,8.15
2023-05-06T13:24:55.429Z,8.02
2023-05-06T13:29:59.251Z,7.90
2023-05-06T13:35:02.930Z,7.55
2023-05-06T13:40:09.731Z,8.57
2023-05-06T13:45:13.697Z,7.65
2023-05-06T13:50:17.147Z,7.50
2023-05-06T13:55:22.153Z,7.95
2023-05-06T14:00:25.512Z,7.47
2023-05-06T14:05:29.380Z,8.30
2023-05-06T14:10:34.567Z,7.75
2023-05-06T14:15:38.199Z,7.10
2023-05-06T14:20:42.026Z,6.72
2023-05-06T14:25:47.051Z,9.27
2023-05-06T14:30:52.319Z,9.43
2023-05-06T14:41:01.410Z,8.90
2023-05-06T14:46:05.142Z,7.85
2023-05-06T14:51:08.710Z,8.15
2023-05-06T14:56:13.770Z,9.63
2023-05-06T15:01:17.574Z,8.68
2023-05-06T15:06:21.490Z,8.82
2023-05-06T15:11:26.646Z,8.65
2023-05-06T15:21:33.664Z,8.05
2023-05-06T15:26:38.746Z,8.45
2023-05-06T15:31:45.033Z,8.18
2023-05-06T15:36:53.026Z,7.82
2023-05-06T15:42:00.507Z,7.45
2023-05-06T15:47:04.322Z,7.45
2023-05-06T15:52:07.978Z,7.28
2023-05-06T15:57:12.962Z,7.80
2023-05-06T16:07:23.179Z,10.98
2023-05-06T16:12:28.186Z,11.63
2023-05-06T16:17:33.287Z,10.02
2023-05-06T16:22:39.216Z,10.23
2023-05-06T16:27:45.129Z,10.00
2023-05-06T16:32:49.187Z,10.38
2023-05-06T16:37:52.812Z,11.05
2023-05-06T16:42:58.115Z,11.25
2023-05-06T16:48:02.085Z,11.20
2023-05-06T16:53:05.956Z,11.45
2023-05-06T16:58:11.012Z,12.93
2023-05-06T17:03:14.352Z,12.73
2023-05-06T17:08:18.815Z,12.82
2023-05-06T17:13:23.642Z,13.17
2023-05-06T17:23:30.255Z,11.98
2023-05-06T17:28:35.153Z,10.60
2023-05-06T17:33:38.790Z,11.32
2023-05-06T17:38:42.518Z,10.70
2023-05-06T17:43:47.895Z,10.48
2023-05-06T17:53:54.927Z,12.32
2023-05-06T17:59:02.844Z,11.43
2023-05-06T18:04:06.571Z,11.52
2023-05-06T18:09:10.792Z,11.63
2023-05-06T18:14:16.048Z,12.40
2023-05-06T18:19:19.842Z,12.18
2023-05-06T18:24:23.699Z,16.45
2023-05-06T18:29:30.873Z,14.18
2023-05-06T18:34:34.933Z,14.75
2023-05-06T18:39:42.315Z,14.77
2023-05-06T18:44:48.599Z,13.63
2023-05-06T18:49:53.849Z,12.73
2023-05-06T18:54:57.502Z,13.20
2023-05-06T19:00:02.556Z,11.68
2023-05-06T19:05:07.001Z,11.88
2023-05-06T19:10:11.596Z,12.13
2023-05-06T19:15:18.737Z,11.43
2023-05-06T19:20:22.352Z,11.55
2023-05-06T19:25:27.481Z,10.10
2023-05-06T19:30:34.861Z,10.57
2023-05-06T19:35:40.251Z,11.32
2023-05-06T19:40:43.940Z,10.55
2023-05-06T19:45:48.990Z,9.70
2023-05-06T19:50:54.350Z,11.18
2023-05-06T19:55:59.627Z,10.63
2023-05-06T20:01:05.885Z,10.25
2023-05-06T20:06:09.674Z,9.43
2023-05-06T20:11:13.463Z,9.75
2023-05-06T20:16:18.482Z,9.93
2023-05-06T20:21:22.001Z,10.65
2023-05-06T20:26:25.730Z,9.50
2023-05-06T20:31:30.901Z,9.27
2023-05-06T20:36:35.387Z,8.73
2023-05-06T20:41:38.937Z,10.75
2023-05-06T20:46:44.132Z,8.88
2023-05-06T20:56:51.483Z,7.55
2023-05-06T21:01:56.778Z,9.02
2023-05-06T21:07:00.898Z,8.13
2023-05-06T21:12:04.852Z,8.10
2023-05-06T21:17:09.982Z,7.05
2023-05-06T21:22:13.697Z,7.32
2023-05-06T21:27:17.746Z,7.10
2023-05-06T21:32:23.217Z,7.22
2023-05-06T21:37:27.037Z,6.40
2023-05-06T21:42:30.831Z,6.90
2023-05-06T21:47:36.035Z,6.65
2023-05-06T21:52:39.802Z,7.00
2023-05-06T21:57:44.605Z,6.88
2023-05-06T22:02:50.940Z,5.95
2023-05-06T22:07:54.868Z,6.05
2023-05-06T22:12:58.861Z,5.97
2023-05-06T22:18:04.082Z,5.95
2023-05-06T22:23:07.567Z,5.50
2023-05-06T22:28:11.199Z,5.05
2023-05-06T22:33:16.276Z,6.13
2023-05-06T22:38:20.047Z,6.10
2023-05-06T22:43:24.008Z,5.13
2023-05-06T22:48:29.059Z,6.10
2023-05-06T22:53:32.768Z,6.05
2023-05-06T22:58:36.568Z,6.28
2023-05-06T23:03:41.534Z,6.20
2023-05-06T23:08:45.072Z,6.78
2023-05-06T23:13:48.820Z,6.70
2023-05-06T23:18:55.280Z,6.55
2023-05-06T23:23:58.595Z,8.77
2023-05-06T23:29:02.358Z,6.95
2023-05-06T23:34:07.579Z,8.52
2023-05-06T23:39:12.495Z,7.63
2023-05-06T23:44:16.186Z,7.87
2023-05-06T23:49:21.449Z,6.97
2023-05-06T23:54:25.064Z,7.72
2023-05-06T23:59:30.224Z,7.07
